PWSweather.com
Personal Weather Stations
Station Observations
KCOBLACK1
Chalet Park, Black Hawk, CO 80422

Chalet ParkBlack Hawk, CO 80422

Lat: 39.8294, Lon: -105.48

Elevation: 9370

Station Type: Vantage Pro2

http://www.oscaranddeb.com/weather

High Low Average
Temperature 68.5°F20.3°F 41.3°F5.2°F 52.8°F11.6°F
Dew Point 34.7°F1.5°F 22.1°F-5.5°F 29.7°F-1.3°F
Winds 11.4 mph SSW18.3 mph SSW Calm Calm 3.7 mph 6.0 mph
Wind Gusts 21.0 mph33.8 mph -- 8.5 mph13.7 mph
Humidity 59% 26% 42%
Pressure 29.61 in1002.70 in 29.45 in997.30 in -
Precipitation 0.00 in0.00 in - -
Hour Temp Dew Point Humidity Winds Wind Gusts Pressure Precip Precip Rate Daily Precip Total
12:00 AM 42.6°F5.9°C 28.0°F-2.2°C 56% 5.4 mph ENE8.7 kmh ENE 9.0 mph14.5 kmh 29.45 in997.3 mb 0.00 in0.0 mm 0.00 in0.0 mm 0.00 in0.0 mm
12:05 AM 42.2°F5.7°C 27.6°F-2.4°C 56% 5.8 mph ENE9.3 kmh ENE 9.0 mph14.5 kmh 29.45 in997.3 mb 0.00 in0.0 mm 0.00 in0.0 mm 0.00 in0.0 mm
12:10 AM 41.9°F5.5°C 27.4°F-2.6°C 56% 6.0 mph E9.7 kmh E 9.0 mph14.5 kmh 29.45 in997.3 mb 0.00 in0.0 mm 0.00 in0.0 mm 0.00 in0.0 mm
12:15 AM 41.8°F5.4°C 27.3°F-2.6°C 56% 6.8 mph NE10.9 kmh NE 10.0 mph16.1 kmh 29.45 in997.3 mb 0.00 in0.0 mm 0.00 in0.0 mm 0.00 in0.0 mm
12:20 AM 42.0°F5.6°C 27.5°F-2.5°C 56% 5.1 mph NE8.2 kmh NE 10.0 mph16.1 kmh 29.46 in997.6 mb 0.00 in0.0 mm 0.00 in0.0 mm 0.00 in0.0 mm
12:25 AM 42.2°F5.7°C 27.6°F-2.4°C 56% 5.0 mph E8.0 kmh E 9.0 mph14.5 kmh 29.46 in997.6 mb 0.00 in0.0 mm 0.00 in0.0 mm 0.00 in0.0 mm
12:30 AM 42.2°F5.7°C 27.2°F-2.7°C 55% 5.6 mph E9.0 kmh E 9.0 mph14.5 kmh 29.47 in998.0 mb 0.00 in0.0 mm 0.00 in0.0 mm 0.00 in0.0 mm
12:35 AM 42.1°F5.6°C 27.1°F-2.7°C 55% 3.5 mph NE5.6 kmh NE 9.0 mph14.5 kmh 29.48 in998.3 mb 0.00 in0.0 mm 0.00 in0.0 mm 0.00 in0.0 mm
12:40 AM 41.9°F5.5°C 26.9°F-2.8°C 55% 4.3 mph N6.9 kmh N 10.0 mph16.1 kmh 29.48 in998.3 mb 0.00 in0.0 mm 0.00 in0.0 mm 0.00 in0.0 mm
12:45 AM 42.1°F5.6°C 27.5°F-2.5°C 56% 2.2 mph NW3.5 kmh NW 11.0 mph17.7 kmh 29.48 in998.3 mb 0.00 in0.0 mm 0.00 in0.0 mm 0.00 in0.0 mm
12:50 AM 42.7°F5.9°C 28.1°F-2.2°C 56% 3.0 mph NW4.8 kmh NW 11.0 mph17.7 kmh 29.47 in998.0 mb 0.00 in0.0 mm 0.00 in0.0 mm 0.00 in0.0 mm
12:55 AM 43.1°F6.2°C 28.0°F-2.2°C 55% 3.5 mph NNW5.6 kmh NNW 9.0 mph14.5 kmh 29.47 in998.0 mb 0.00 in0.0 mm 0.00 in0.0 mm 0.00 in0.0 mm
01:00 AM 43.3°F6.3°C 27.8°F-2.3°C 54% 3.1 mph NNW5.0 kmh NNW 9.0 mph14.5 kmh 29.46 in997.6 mb 0.00 in0.0 mm 0.00 in0.0 mm 0.00 in0.0 mm
01:05 AM 43.4°F6.3°C 27.9°F-2.3°C 54% 2.3 mph E3.7 kmh E 8.0 mph12.9 kmh 29.46 in997.6 mb 0.00 in0.0 mm 0.00 in0.0 mm 0.00 in0.0 mm
01:10 AM 43.5°F6.4°C 27.5°F-2.5°C 53% 1.2 mph ESE1.9 kmh ESE 4.0 mph6.4 kmh 29.46 in997.6 mb 0.00 in0.0 mm 0.00 in0.0 mm 0.00 in0.0 mm
01:15 AM 43.6°F6.4°C 27.6°F-2.4°C 53% 2.1 mph E3.4 kmh E 5.0 mph8.0 kmh 29.46 in997.6 mb 0.00 in0.0 mm 0.00 in0.0 mm 0.00 in0.0 mm
01:20 AM 43.4°F6.3°C 27.4°F-2.6°C 53% 2.8 mph E4.5 kmh E 6.0 mph9.7 kmh 29.45 in997.3 mb 0.00 in0.0 mm 0.00 in0.0 mm 0.00 in0.0 mm
01:25 AM 43.1°F6.2°C 27.6°F-2.4°C 54% 4.5 mph E7.2 kmh E 8.0 mph12.9 kmh 29.46 in997.6 mb 0.00 in0.0 mm 0.00 in0.0 mm 0.00 in0.0 mm
01:30 AM 43.1°F6.2°C 26.7°F-2.9°C 52% 2.0 mph SE3.2 kmh SE 8.0 mph12.9 kmh 29.46 in997.6 mb 0.00 in0.0 mm 0.00 in0.0 mm 0.00 in0.0 mm
01:35 AM 43.3°F6.3°C 27.3°F-2.6°C 53% 2.1 mph ESE3.4 kmh ESE 5.0 mph8.0 kmh 29.47 in998.0 mb 0.00 in0.0 mm 0.00 in0.0 mm 0.00 in0.0 mm
01:40 AM 42.9°F6.1°C 27.4°F-2.6°C 54% 3.0 mph ENE4.8 kmh ENE 6.0 mph9.7 kmh 29.47 in998.0 mb 0.00 in0.0 mm 0.00 in0.0 mm 0.00 in0.0 mm
01:45 AM 42.3°F5.7°C 27.3°F-2.6°C 55% 2.5 mph NE4.0 kmh NE 6.0 mph9.7 kmh 29.47 in998.0 mb 0.00 in0.0 mm 0.00 in0.0 mm 0.00 in0.0 mm
01:50 AM 42.0°F5.6°C 27.0°F-2.8°C 55% 4.4 mph E7.1 kmh E 8.0 mph12.9 kmh 29.47 in998.0 mb 0.00 in0.0 mm 0.00 in0.0 mm 0.00 in0.0 mm
01:55 AM 41.8°F5.4°C 27.7°F-2.4°C 57% 4.6 mph NE7.4 kmh NE 8.0 mph12.9 kmh 29.48 in998.3 mb 0.00 in0.0 mm 0.00 in0.0 mm 0.00 in0.0 mm
02:00 AM 41.5°F5.3°C 27.4°F-2.6°C 57% 2.2 mph E3.5 kmh E 7.0 mph11.3 kmh 29.48 in998.3 mb 0.00 in0.0 mm 0.00 in0.0 mm 0.00 in0.0 mm
02:05 AM 41.3°F5.2°C 27.7°F-2.4°C 58% 3.5 mph ENE5.6 kmh ENE 5.0 mph8.0 kmh 29.48 in998.3 mb 0.00 in0.0 mm 0.00 in0.0 mm 0.00 in0.0 mm
02:10 AM 41.3°F5.2°C 27.7°F-2.4°C 58% 5.3 mph E8.5 kmh E 8.0 mph12.9 kmh 29.48 in998.3 mb 0.00 in0.0 mm 0.00 in0.0 mm 0.00 in0.0 mm
02:15 AM 41.6°F5.3°C 27.9°F-2.3°C 58% 3.4 mph E5.5 kmh E 8.0 mph12.9 kmh 29.48 in998.3 mb 0.00 in0.0 mm 0.00 in0.0 mm 0.00 in0.0 mm
02:20 AM 41.7°F5.4°C 27.6°F-2.4°C 57% 2.1 mph SE3.4 kmh SE 7.0 mph11.3 kmh 29.48 in998.3 mb 0.00 in0.0 mm 0.00 in0.0 mm 0.00 in0.0 mm
02:25 AM 41.7°F5.4°C 27.6°F-2.4°C 57% 1.6 mph E2.6 kmh E 5.0 mph8.0 kmh 29.48 in998.3 mb 0.00 in0.0 mm 0.00 in0.0 mm 0.00 in0.0 mm
02:30 AM 41.6°F5.3°C 27.9°F-2.3°C 58% 2.5 mph ENE4.0 kmh ENE 5.0 mph8.0 kmh 29.48 in998.3 mb 0.00 in0.0 mm 0.00 in0.0 mm 0.00 in0.0 mm
02:35 AM 41.4°F5.2°C 27.7°F-2.4°C 58% 1.5 mph E2.4 kmh E 5.0 mph8.0 kmh 29.49 in998.6 mb 0.00 in0.0 mm 0.00 in0.0 mm 0.00 in0.0 mm
02:40 AM 41.4°F5.2°C 28.2°F-2.1°C 59% 2.9 mph ESE4.7 kmh ESE 5.0 mph8.0 kmh 29.49 in998.6 mb 0.00 in0.0 mm 0.00 in0.0 mm 0.00 in0.0 mm
02:45 AM 41.5°F5.3°C 28.3°F-2.1°C 59% 0.6 mph ESE1.0 kmh ESE 5.0 mph8.0 kmh 29.49 in998.6 mb 0.00 in0.0 mm 0.00 in0.0 mm 0.00 in0.0 mm
02:50 AM 41.9°F5.5°C 28.6°F-1.9°C 59% 1.9 mph SE3.1 kmh SE 7.0 mph11.3 kmh 29.49 in998.6 mb 0.00 in0.0 mm 0.00 in0.0 mm 0.00 in0.0 mm
02:55 AM 42.3°F5.7°C 28.6°F-1.9°C 58% 2.7 mph ENE4.3 kmh ENE 7.0 mph11.3 kmh 29.49 in998.6 mb 0.00 in0.0 mm 0.00 in0.0 mm 0.00 in0.0 mm
03:00 AM 42.7°F5.9°C 28.5°F-1.9°C 57% 3.9 mph SE6.3 kmh SE 6.0 mph9.7 kmh 29.49 in998.6 mb 0.00 in0.0 mm 0.00 in0.0 mm 0.00 in0.0 mm
03:05 AM 43.4°F6.3°C 28.3°F-2.1°C 55% 3.7 mph SE6.0 kmh SE 7.0 mph11.3 kmh 29.50 in999.0 mb 0.00 in0.0 mm 0.00 in0.0 mm 0.00 in0.0 mm
03:10 AM 43.8°F6.6°C 28.7°F-1.8°C 55% 2.0 mph SE3.2 kmh SE 7.0 mph11.3 kmh 29.50 in999.0 mb 0.00 in0.0 mm 0.00 in0.0 mm 0.00 in0.0 mm
03:15 AM 43.9°F6.6°C 28.3°F-2.1°C 54% 2.7 mph SSE4.3 kmh SSE 5.0 mph8.0 kmh 29.50 in999.0 mb 0.00 in0.0 mm 0.00 in0.0 mm 0.00 in0.0 mm
03:20 AM 43.8°F6.6°C 28.3°F-2.1°C 54% 1.4 mph SE2.3 kmh SE 5.0 mph8.0 kmh 29.50 in999.0 mb 0.00 in0.0 mm 0.00 in0.0 mm 0.00 in0.0 mm
03:25 AM 43.4°F6.3°C 28.3°F-2.1°C 55% 2.0 mph ENE3.2 kmh ENE 4.0 mph6.4 kmh 29.51 in999.3 mb 0.00 in0.0 mm 0.00 in0.0 mm 0.00 in0.0 mm
03:30 AM 42.8°F6.0°C 28.2°F-2.1°C 56% 2.8 mph ENE4.5 kmh ENE 5.0 mph8.0 kmh 29.51 in999.3 mb 0.00 in0.0 mm 0.00 in0.0 mm 0.00 in0.0 mm
03:35 AM 42.3°F5.7°C 28.2°F-2.1°C 57% 3.3 mph NE5.3 kmh NE 5.0 mph8.0 kmh 29.51 in999.3 mb 0.00 in0.0 mm 0.00 in0.0 mm 0.00 in0.0 mm
03:40 AM 42.0°F5.6°C 28.3°F-2.1°C 58% 2.6 mph NE4.2 kmh NE 4.0 mph6.4 kmh 29.51 in999.3 mb 0.00 in0.0 mm 0.00 in0.0 mm 0.00 in0.0 mm
03:45 AM 41.9°F5.5°C 28.2°F-2.1°C 58% 2.8 mph ENE4.5 kmh ENE 4.0 mph6.4 kmh 29.51 in999.3 mb 0.00 in0.0 mm 0.00 in0.0 mm 0.00 in0.0 mm
03:50 AM 42.0°F5.6°C 27.9°F-2.3°C 57% 1.6 mph NE2.6 kmh NE 4.0 mph6.4 kmh 29.51 in999.3 mb 0.00 in0.0 mm 0.00 in0.0 mm 0.00 in0.0 mm
03:55 AM 42.2°F5.7°C 28.1°F-2.2°C 57% 2.0 mph ENE3.2 kmh ENE 5.0 mph8.0 kmh 29.51 in999.3 mb 0.00 in0.0 mm 0.00 in0.0 mm 0.00 in0.0 mm
04:00 AM 42.5°F5.8°C 28.4°F-2.0°C 57% 3.0 mph NE4.8 kmh NE 5.0 mph8.0 kmh 29.52 in999.7 mb 0.00 in0.0 mm 0.00 in0.0 mm 0.00 in0.0 mm
04:05 AM 42.6°F5.9°C 28.4°F-2.0°C 57% 4.3 mph NE6.9 kmh NE 7.0 mph11.3 kmh 29.52 in999.7 mb 0.00 in0.0 mm 0.00 in0.0 mm 0.00 in0.0 mm
04:10 AM 42.6°F5.9°C 28.4°F-2.0°C 57% 3.6 mph NE5.8 kmh NE 7.0 mph11.3 kmh 29.52 in999.7 mb 0.00 in0.0 mm 0.00 in0.0 mm 0.00 in0.0 mm
04:15 AM 42.5°F5.8°C 28.4°F-2.0°C 57% 4.2 mph NE6.8 kmh NE 7.0 mph11.3 kmh 29.52 in999.7 mb 0.00 in0.0 mm 0.00 in0.0 mm 0.00 in0.0 mm
04:20 AM 42.4°F5.8°C 28.3°F-2.1°C 57% 5.1 mph NE8.2 kmh NE 8.0 mph12.9 kmh 29.52 in999.7 mb 0.00 in0.0 mm 0.00 in0.0 mm 0.00 in0.0 mm
04:25 AM 42.4°F5.8°C 28.3°F-2.1°C 57% 3.3 mph NE5.3 kmh NE 8.0 mph12.9 kmh 29.53 in1000.0 mb 0.00 in0.0 mm 0.00 in0.0 mm 0.00 in0.0 mm
04:30 AM 42.4°F5.8°C 28.3°F-2.1°C 57% 4.4 mph NE7.1 kmh NE 8.0 mph12.9 kmh 29.53 in1000.0 mb 0.00 in0.0 mm 0.00 in0.0 mm 0.00 in0.0 mm
04:35 AM 42.3°F5.7°C 28.2°F-2.1°C 57% 3.5 mph NE5.6 kmh NE 8.0 mph12.9 kmh 29.53 in1000.0 mb 0.00 in0.0 mm 0.00 in0.0 mm 0.00 in0.0 mm
04:40 AM 42.2°F5.7°C 27.6°F-2.4°C 56% 4.6 mph NE7.4 kmh NE 7.0 mph11.3 kmh 29.53 in1000.0 mb 0.00 in0.0 mm 0.00 in0.0 mm 0.00 in0.0 mm
04:45 AM 42.3°F5.7°C 27.7°F-2.4°C 56% 4.4 mph NE7.1 kmh NE 7.0 mph11.3 kmh 29.53 in1000.0 mb 0.00 in0.0 mm 0.00 in0.0 mm 0.00 in0.0 mm
04:50 AM 42.4°F5.8°C 28.3°F-2.1°C 57% 5.3 mph NE8.5 kmh NE 10.0 mph16.1 kmh 29.53 in1000.0 mb 0.00 in0.0 mm 0.00 in0.0 mm 0.00 in0.0 mm
04:55 AM 42.3°F5.7°C 28.2°F-2.1°C 57% 5.0 mph NE8.0 kmh NE 10.0 mph16.1 kmh 29.53 in1000.0 mb 0.00 in0.0 mm 0.00 in0.0 mm 0.00 in0.0 mm
05:00 AM 42.1°F5.6°C 28.0°F-2.2°C 57% 4.0 mph ENE6.4 kmh ENE 7.0 mph11.3 kmh 29.54 in1000.3 mb 0.00 in0.0 mm 0.00 in0.0 mm 0.00 in0.0 mm
05:05 AM 42.4°F5.8°C 28.3°F-2.1°C 57% 4.2 mph ENE6.8 kmh ENE 9.0 mph14.5 kmh 29.54 in1000.3 mb 0.00 in0.0 mm 0.00 in0.0 mm 0.00 in0.0 mm
05:10 AM 42.7°F5.9°C 28.5°F-1.9°C 57% 4.5 mph NE7.2 kmh NE 9.0 mph14.5 kmh 29.54 in1000.3 mb 0.00 in0.0 mm 0.00 in0.0 mm 0.00 in0.0 mm
05:15 AM 42.9°F6.1°C 28.3°F-2.1°C 56% 4.2 mph NE6.8 kmh NE 7.0 mph11.3 kmh 29.54 in1000.3 mb 0.00 in0.0 mm 0.00 in0.0 mm 0.00 in0.0 mm
05:20 AM 43.1°F6.2°C 28.0°F-2.2°C 55% 4.6 mph NE7.4 kmh NE 7.0 mph11.3 kmh 29.54 in1000.3 mb 0.00 in0.0 mm 0.00 in0.0 mm 0.00 in0.0 mm
05:25 AM 43.2°F6.2°C 28.1°F-2.2°C 55% 4.1 mph NE6.6 kmh NE 7.0 mph11.3 kmh 29.54 in1000.3 mb 0.00 in0.0 mm 0.00 in0.0 mm 0.00 in0.0 mm
05:30 AM 43.3°F6.3°C 28.2°F-2.1°C 55% 4.4 mph NE7.1 kmh NE 7.0 mph11.3 kmh 29.54 in1000.3 mb 0.00 in0.0 mm 0.00 in0.0 mm 0.00 in0.0 mm
05:35 AM 43.5°F6.4°C 28.0°F-2.2°C 54% 3.9 mph NE6.3 kmh NE 7.0 mph11.3 kmh 29.55 in1000.7 mb 0.00 in0.0 mm 0.00 in0.0 mm 0.00 in0.0 mm
05:40 AM 43.5°F6.4°C 28.0°F-2.2°C 54% 3.6 mph E5.8 kmh E 7.0 mph11.3 kmh 29.55 in1000.7 mb 0.00 in0.0 mm 0.00 in0.0 mm 0.00 in0.0 mm
05:45 AM 43.3°F6.3°C 28.2°F-2.1°C 55% 6.2 mph ENE10.0 kmh ENE 10.0 mph16.1 kmh 29.55 in1000.7 mb 0.00 in0.0 mm 0.00 in0.0 mm 0.00 in0.0 mm
05:50 AM 43.3°F6.3°C 28.2°F-2.1°C 55% 3.3 mph NE5.3 kmh NE 10.0 mph16.1 kmh 29.55 in1000.7 mb 0.00 in0.0 mm 0.00 in0.0 mm 0.00 in0.0 mm
05:55 AM 43.6°F6.4°C 28.1°F-2.2°C 54% 3.2 mph E5.1 kmh E 9.0 mph14.5 kmh 29.55 in1000.7 mb 0.00 in0.0 mm 0.00 in0.0 mm 0.00 in0.0 mm
06:00 AM 43.8°F6.6°C 28.3°F-2.1°C 54% 2.7 mph ENE4.3 kmh ENE 6.0 mph9.7 kmh 29.55 in1000.7 mb 0.00 in0.0 mm 0.00 in0.0 mm 0.00 in0.0 mm
06:05 AM 43.9°F6.6°C 27.9°F-2.3°C 53% 3.8 mph E6.1 kmh E 6.0 mph9.7 kmh 29.55 in1000.7 mb 0.00 in0.0 mm 0.00 in0.0 mm 0.00 in0.0 mm
06:10 AM 44.0°F6.7°C 28.4°F-2.0°C 54% 3.6 mph E5.8 kmh E 7.0 mph11.3 kmh 29.56 in1001.0 mb 0.00 in0.0 mm 0.00 in0.0 mm 0.00 in0.0 mm
06:15 AM 43.8°F6.6°C 27.8°F-2.3°C 53% 2.8 mph E4.5 kmh E 7.0 mph11.3 kmh 29.56 in1001.0 mb 0.00 in0.0 mm 0.00 in0.0 mm 0.00 in0.0 mm
06:20 AM 43.8°F6.6°C 27.8°F-2.3°C 53% 2.2 mph NE3.5 kmh NE 5.0 mph8.0 kmh 29.56 in1001.0 mb 0.00 in0.0 mm 0.00 in0.0 mm 0.00 in0.0 mm
06:25 AM 44.2°F6.8°C 28.2°F-2.1°C 53% 3.8 mph SSE6.1 kmh SSE 7.0 mph11.3 kmh 29.57 in1001.4 mb 0.00 in0.0 mm 0.00 in0.0 mm 0.00 in0.0 mm
06:30 AM 45.2°F7.3°C 28.2°F-2.1°C 51% 2.4 mph SE3.9 kmh SE 7.0 mph11.3 kmh 29.57 in1001.4 mb 0.00 in0.0 mm 0.00 in0.0 mm 0.00 in0.0 mm
06:35 AM 45.7°F7.6°C 28.1°F-2.2°C 50% 2.4 mph SE3.9 kmh SE 6.0 mph9.7 kmh 29.57 in1001.4 mb 0.00 in0.0 mm 0.00 in0.0 mm 0.00 in0.0 mm
06:40 AM 46.1°F7.8°C 28.5°F-1.9°C 50% 1.7 mph SE2.7 kmh SE 4.0 mph6.4 kmh 29.57 in1001.4 mb 0.00 in0.0 mm 0.00 in0.0 mm 0.00 in0.0 mm
06:45 AM 46.3°F7.9°C 28.2°F-2.1°C 49% 1.6 mph SE2.6 kmh SE 4.0 mph6.4 kmh 29.58 in1001.7 mb 0.00 in0.0 mm 0.00 in0.0 mm 0.00 in0.0 mm
06:50 AM 46.4°F8.0°C 28.3°F-2.1°C 49% 1.4 mph S2.3 kmh S 5.0 mph8.0 kmh 29.58 in1001.7 mb 0.00 in0.0 mm 0.00 in0.0 mm 0.00 in0.0 mm
06:55 AM 46.4°F8.0°C 27.8°F-2.3°C 48% 1.8 mph SSW2.9 kmh SSW 5.0 mph8.0 kmh 29.59 in1002.0 mb 0.00 in0.0 mm 0.00 in0.0 mm 0.00 in0.0 mm
07:00 AM 46.7°F8.2°C 28.1°F-2.2°C 48% 1.4 mph NNW2.3 kmh NNW 4.0 mph6.4 kmh 29.59 in1002.0 mb 0.00 in0.0 mm 0.00 in0.0 mm 0.00 in0.0 mm
07:05 AM 46.9°F8.3°C 28.2°F-2.1°C 48% 2.1 mph N3.4 kmh N 6.0 mph9.7 kmh 29.59 in1002.0 mb 0.00 in0.0 mm 0.00 in0.0 mm 0.00 in0.0 mm
07:10 AM 47.0°F8.3°C 28.3°F-2.1°C 48% 0.5 mph NE0.8 kmh NE 6.0 mph9.7 kmh 29.59 in1002.0 mb 0.00 in0.0 mm 0.00 in0.0 mm 0.00 in0.0 mm
07:15 AM 47.0°F8.3°C 28.3°F-2.1°C 48% 0.9 mph E1.4 kmh E 3.0 mph4.8 kmh 29.60 in1002.4 mb 0.00 in0.0 mm 0.00 in0.0 mm 0.00 in0.0 mm
07:20 AM 47.1°F8.4°C 27.9°F-2.3°C 47% 0.1 mph E0.2 kmh E 3.0 mph4.8 kmh 29.59 in1002.0 mb 0.00 in0.0 mm 0.00 in0.0 mm 0.00 in0.0 mm
07:25 AM 47.2°F8.4°C 28.0°F-2.2°C 47% Calm Calm 1.0 mph1.6 kmh 29.59 in1002.0 mb 0.00 in0.0 mm 0.00 in0.0 mm 0.00 in0.0 mm
07:30 AM 47.2°F8.4°C 28.0°F-2.2°C 47% Calm Calm -- 29.60 in1002.4 mb 0.00 in0.0 mm 0.00 in0.0 mm 0.00 in0.0 mm
07:35 AM 47.4°F8.6°C 28.2°F-2.1°C 47% Calm Calm -- 29.60 in1002.4 mb 0.00 in0.0 mm 0.00 in0.0 mm 0.00 in0.0 mm
07:40 AM 47.5°F8.6°C 28.3°F-2.1°C 47% Calm Calm -- 29.60 in1002.4 mb 0.00 in0.0 mm 0.00 in0.0 mm 0.00 in0.0 mm
07:45 AM 47.7°F8.7°C 27.9°F-2.3°C 46% 2.9 mph SSE4.7 kmh SSE 9.0 mph14.5 kmh 29.60 in1002.4 mb 0.00 in0.0 mm 0.00 in0.0 mm 0.00 in0.0 mm
07:50 AM 48.2°F9.0°C 28.4°F-2.0°C 46% 4.4 mph SSE7.1 kmh SSE 9.0 mph14.5 kmh 29.60 in1002.4 mb 0.00 in0.0 mm 0.00 in0.0 mm 0.00 in0.0 mm
07:55 AM 48.7°F9.3°C 28.3°F-2.1°C 45% 4.7 mph S7.6 kmh S 9.0 mph14.5 kmh 29.60 in1002.4 mb 0.00 in0.0 mm 0.00 in0.0 mm 0.00 in0.0 mm
08:00 AM 48.9°F9.4°C 28.5°F-1.9°C 45% 4.4 mph S7.1 kmh S 8.0 mph12.9 kmh 29.60 in1002.4 mb 0.00 in0.0 mm 0.00 in0.0 mm 0.00 in0.0 mm
08:05 AM 49.0°F9.4°C 28.0°F-2.2°C 44% 6.1 mph S9.8 kmh S 9.0 mph14.5 kmh 29.60 in1002.4 mb 0.00 in0.0 mm 0.00 in0.0 mm 0.00 in0.0 mm
08:10 AM 49.0°F9.4°C 28.0°F-2.2°C 44% 4.8 mph S7.7 kmh S 9.0 mph14.5 kmh 29.60 in1002.4 mb 0.00 in0.0 mm 0.00 in0.0 mm 0.00 in0.0 mm
08:15 AM 49.0°F9.4°C 28.0°F-2.2°C 44% 6.2 mph S10.0 kmh S 9.0 mph14.5 kmh 29.60 in1002.4 mb 0.00 in0.0 mm 0.00 in0.0 mm 0.00 in0.0 mm
08:20 AM 49.1°F9.5°C 28.1°F-2.2°C 44% 4.8 mph S7.7 kmh S 9.0 mph14.5 kmh 29.60 in1002.4 mb 0.00 in0.0 mm 0.00 in0.0 mm 0.00 in0.0 mm
08:25 AM 49.1°F9.5°C 28.1°F-2.2°C 44% 5.7 mph S9.2 kmh S 10.0 mph16.1 kmh 29.60 in1002.4 mb 0.00 in0.0 mm 0.00 in0.0 mm 0.00 in0.0 mm
08:30 AM 49.2°F9.6°C 28.2°F-2.1°C 44% 4.3 mph S6.9 kmh S 10.0 mph16.1 kmh 29.60 in1002.4 mb 0.00 in0.0 mm 0.00 in0.0 mm 0.00 in0.0 mm
08:35 AM 49.3°F9.6°C 28.9°F-1.7°C 45% 3.0 mph SSW4.8 kmh SSW 9.0 mph14.5 kmh 29.60 in1002.4 mb 0.00 in0.0 mm 0.00 in0.0 mm 0.00 in0.0 mm
08:40 AM 49.4°F9.7°C 28.4°F-2.0°C 44% 5.7 mph S9.2 kmh S 12.0 mph19.3 kmh 29.60 in1002.4 mb 0.00 in0.0 mm 0.00 in0.0 mm 0.00 in0.0 mm
08:45 AM 49.6°F9.8°C 28.6°F-1.9°C 44% 7.4 mph S11.9 kmh S 12.0 mph19.3 kmh 29.60 in1002.4 mb 0.00 in0.0 mm 0.00 in0.0 mm 0.00 in0.0 mm
08:50 AM 49.8°F9.9°C 28.8°F-1.8°C 44% 4.7 mph S7.6 kmh S 11.0 mph17.7 kmh 29.61 in1002.7 mb 0.00 in0.0 mm 0.00 in0.0 mm 0.00 in0.0 mm
08:55 AM 49.9°F9.9°C 28.3°F-2.1°C 43% 5.5 mph S8.9 kmh S 10.0 mph16.1 kmh 29.61 in1002.7 mb 0.00 in0.0 mm 0.00 in0.0 mm 0.00 in0.0 mm
09:00 AM 50.3°F10.2°C 28.7°F-1.8°C 43% 5.5 mph S8.9 kmh S 10.0 mph16.1 kmh 29.61 in1002.7 mb 0.00 in0.0 mm 0.00 in0.0 mm 0.00 in0.0 mm
09:05 AM 50.8°F10.4°C 28.5°F-1.9°C 42% 6.7 mph S10.8 kmh S 11.0 mph17.7 kmh 29.61 in1002.7 mb 0.00 in0.0 mm 0.00 in0.0 mm 0.00 in0.0 mm
09:10 AM 51.0°F10.6°C 28.7°F-1.8°C 42% 6.1 mph SSW9.8 kmh SSW 11.0 mph17.7 kmh 29.61 in1002.7 mb 0.00 in0.0 mm 0.00 in0.0 mm 0.00 in0.0 mm
09:15 AM 51.2°F10.7°C 28.9°F-1.7°C 42% 6.2 mph SSW10.0 kmh SSW 11.0 mph17.7 kmh 29.61 in1002.7 mb 0.00 in0.0 mm 0.00 in0.0 mm 0.00 in0.0 mm
09:20 AM 51.5°F10.8°C 28.0°F-2.2°C 40% 6.3 mph SSW10.1 kmh SSW 14.0 mph22.5 kmh 29.61 in1002.7 mb 0.00 in0.0 mm 0.00 in0.0 mm 0.00 in0.0 mm
09:25 AM 51.7°F10.9°C 28.8°F-1.8°C 41% 5.6 mph SSW9.0 kmh SSW 14.0 mph22.5 kmh 29.61 in1002.7 mb 0.00 in0.0 mm 0.00 in0.0 mm 0.00 in0.0 mm
09:30 AM 52.0°F11.1°C 29.0°F-1.7°C 41% 4.6 mph SSW7.4 kmh SSW 11.0 mph17.7 kmh 29.61 in1002.7 mb 0.00 in0.0 mm 0.00 in0.0 mm 0.00 in0.0 mm
09:35 AM 52.1°F11.2°C 29.1°F-1.6°C 41% 4.1 mph SW6.6 kmh SW 10.0 mph16.1 kmh 29.61 in1002.7 mb 0.00 in0.0 mm 0.00 in0.0 mm 0.00 in0.0 mm
09:40 AM 52.3°F11.3°C 29.3°F-1.5°C 41% 6.8 mph S10.9 kmh S 14.0 mph22.5 kmh 29.61 in1002.7 mb 0.00 in0.0 mm 0.00 in0.0 mm 0.00 in0.0 mm
09:45 AM 52.4°F11.3°C 28.8°F-1.8°C 40% 7.8 mph SW12.6 kmh SW 14.0 mph22.5 kmh 29.61 in1002.7 mb 0.00 in0.0 mm 0.00 in0.0 mm 0.00 in0.0 mm
09:50 AM 52.5°F11.4°C 28.9°F-1.7°C 40% 8.0 mph SSW12.9 kmh SSW 16.0 mph25.7 kmh 29.61 in1002.7 mb 0.00 in0.0 mm 0.00 in0.0 mm 0.00 in0.0 mm
09:55 AM 52.8°F11.6°C 28.5°F-1.9°C 39% 6.8 mph SW10.9 kmh SW 16.0 mph25.7 kmh 29.61 in1002.7 mb 0.00 in0.0 mm 0.00 in0.0 mm 0.00 in0.0 mm
10:00 AM 53.3°F11.8°C 28.3°F-2.1°C 38% 9.3 mph SW15.0 kmh SW 16.0 mph25.7 kmh 29.61 in1002.7 mb 0.00 in0.0 mm 0.00 in0.0 mm 0.00 in0.0 mm
10:05 AM 53.4°F11.9°C 28.4°F-2.0°C 38% 9.3 mph SW15.0 kmh SW 16.0 mph25.7 kmh 29.61 in1002.7 mb 0.00 in0.0 mm 0.00 in0.0 mm 0.00 in0.0 mm
10:10 AM 53.7°F12.1°C 28.7°F-1.8°C 38% 9.6 mph SSW15.4 kmh SSW 17.0 mph27.4 kmh 29.61 in1002.7 mb 0.00 in0.0 mm 0.00 in0.0 mm 0.00 in0.0 mm
10:15 AM 54.2°F12.3°C 28.5°F-1.9°C 37% 7.2 mph SW11.6 kmh SW 17.0 mph27.4 kmh 29.61 in1002.7 mb 0.00 in0.0 mm 0.00 in0.0 mm 0.00 in0.0 mm
10:20 AM 54.1°F12.3°C 28.4°F-2.0°C 37% 7.3 mph SW11.7 kmh SW 13.0 mph20.9 kmh 29.61 in1002.7 mb 0.00 in0.0 mm 0.00 in0.0 mm 0.00 in0.0 mm
10:25 AM 54.2°F12.3°C 28.5°F-1.9°C 37% 8.4 mph SW13.5 kmh SW 16.0 mph25.7 kmh 29.61 in1002.7 mb 0.00 in0.0 mm 0.00 in0.0 mm 0.00 in0.0 mm
10:30 AM 54.6°F12.6°C 28.9°F-1.7°C 37% 8.7 mph SSW14.0 kmh SSW 16.0 mph25.7 kmh 29.61 in1002.7 mb 0.00 in0.0 mm 0.00 in0.0 mm 0.00 in0.0 mm
10:35 AM 54.9°F12.7°C 27.8°F-2.3°C 35% 9.6 mph SSW15.4 kmh SSW 21.0 mph33.8 kmh 29.61 in1002.7 mb 0.00 in0.0 mm 0.00 in0.0 mm 0.00 in0.0 mm
10:40 AM 55.3°F12.9°C 28.1°F-2.2°C 35% 7.8 mph SSW12.6 kmh SSW 21.0 mph33.8 kmh 29.60 in1002.4 mb 0.00 in0.0 mm 0.00 in0.0 mm 0.00 in0.0 mm
10:45 AM 55.7°F13.2°C 27.8°F-2.3°C 34% 6.0 mph SW9.7 kmh SW 14.0 mph22.5 kmh 29.61 in1002.7 mb 0.00 in0.0 mm 0.00 in0.0 mm 0.00 in0.0 mm
10:50 AM 56.2°F13.4°C 28.2°F-2.1°C 34% 6.6 mph SW10.6 kmh SW 17.0 mph27.4 kmh 29.61 in1002.7 mb 0.00 in0.0 mm 0.00 in0.0 mm 0.00 in0.0 mm
10:55 AM 56.2°F13.4°C 28.2°F-2.1°C 34% 9.4 mph SW15.1 kmh SW 17.0 mph27.4 kmh 29.61 in1002.7 mb 0.00 in0.0 mm 0.00 in0.0 mm 0.00 in0.0 mm
11:00 AM 55.9°F13.3°C 27.9°F-2.3°C 34% 11.4 mph SSW18.3 kmh SSW 19.0 mph30.6 kmh 29.61 in1002.7 mb 0.00 in0.0 mm 0.00 in0.0 mm 0.00 in0.0 mm
11:05 AM 56.0°F13.3°C 28.0°F-2.2°C 34% 7.6 mph SW12.2 kmh SW 19.0 mph30.6 kmh 29.61 in1002.7 mb 0.00 in0.0 mm 0.00 in0.0 mm 0.00 in0.0 mm
11:10 AM 56.8°F13.8°C 27.3°F-2.6°C 32% 8.2 mph SSW13.2 kmh SSW 16.0 mph25.7 kmh 29.61 in1002.7 mb 0.00 in0.0 mm 0.00 in0.0 mm 0.00 in0.0 mm
11:15 AM 57.2°F14.0°C 28.4°F-2.0°C 33% 7.8 mph S12.6 kmh S 14.0 mph22.5 kmh 29.60 in1002.4 mb 0.00 in0.0 mm 0.00 in0.0 mm 0.00 in0.0 mm
11:20 AM 57.4°F14.1°C 27.8°F-2.3°C 32% 8.1 mph SSW13.0 kmh SSW 15.0 mph24.1 kmh 29.60 in1002.4 mb 0.00 in0.0 mm 0.00 in0.0 mm 0.00 in0.0 mm
11:25 AM 57.2°F14.0°C 26.8°F-2.9°C 31% 8.9 mph S14.3 kmh S 17.0 mph27.4 kmh 29.60 in1002.4 mb 0.00 in0.0 mm 0.00 in0.0 mm 0.00 in0.0 mm
11:30 AM 57.5°F14.2°C 27.9°F-2.3°C 32% 8.3 mph SSW13.4 kmh SSW 17.0 mph27.4 kmh 29.60 in1002.4 mb 0.00 in0.0 mm 0.00 in0.0 mm 0.00 in0.0 mm
11:35 AM 57.8°F14.3°C 28.1°F-2.2°C 32% 6.9 mph SW11.1 kmh SW 17.0 mph27.4 kmh 29.60 in1002.4 mb 0.00 in0.0 mm 0.00 in0.0 mm 0.00 in0.0 mm
11:40 AM 58.0°F14.4°C 27.5°F-2.5°C 31% 6.0 mph SSW9.7 kmh SSW 13.0 mph20.9 kmh 29.59 in1002.0 mb 0.00 in0.0 mm 0.00 in0.0 mm 0.00 in0.0 mm
11:45 AM 58.7°F14.8°C 28.9°F-1.7°C 32% 3.8 mph SSW6.1 kmh SSW 13.0 mph20.9 kmh 29.60 in1002.4 mb 0.00 in0.0 mm 0.00 in0.0 mm 0.00 in0.0 mm
11:50 AM 58.9°F14.9°C 27.5°F-2.5°C 30% 6.9 mph SSW11.1 kmh SSW 13.0 mph20.9 kmh 29.60 in1002.4 mb 0.00 in0.0 mm 0.00 in0.0 mm 0.00 in0.0 mm
11:55 AM 59.0°F15.0°C 27.6°F-2.4°C 30% 6.9 mph SSW11.1 kmh SSW 13.0 mph20.9 kmh 29.59 in1002.0 mb 0.00 in0.0 mm 0.00 in0.0 mm 0.00 in0.0 mm
12:00 PM 58.7°F14.8°C 28.2°F-2.1°C 31% 7.2 mph SSW11.6 kmh SSW 13.0 mph20.9 kmh 29.59 in1002.0 mb 0.00 in0.0 mm 0.00 in0.0 mm 0.00 in0.0 mm
12:05 PM 59.2°F15.1°C 27.0°F-2.8°C 29% 8.7 mph SSW14.0 kmh SSW 17.0 mph27.4 kmh 29.59 in1002.0 mb 0.00 in0.0 mm 0.00 in0.0 mm 0.00 in0.0 mm
12:10 PM 59.5°F15.3°C 27.2°F-2.7°C 29% 6.2 mph SSW10.0 kmh SSW 17.0 mph27.4 kmh 29.59 in1002.0 mb 0.00 in0.0 mm 0.00 in0.0 mm 0.00 in0.0 mm
12:15 PM 59.6°F15.3°C 27.3°F-2.6°C 29% 10.4 mph S16.7 kmh S 18.0 mph29.0 kmh 29.58 in1001.7 mb 0.00 in0.0 mm 0.00 in0.0 mm 0.00 in0.0 mm
12:20 PM 59.9°F15.5°C 26.7°F-2.9°C 28% 6.0 mph SW9.7 kmh SW 18.0 mph29.0 kmh 29.58 in1001.7 mb 0.00 in0.0 mm 0.00 in0.0 mm 0.00 in0.0 mm
12:25 PM 60.3°F15.7°C 27.1°F-2.7°C 28% 3.2 mph WSW5.1 kmh WSW 16.0 mph25.7 kmh 29.58 in1001.7 mb 0.00 in0.0 mm 0.00 in0.0 mm 0.00 in0.0 mm
12:30 PM 60.2°F15.7°C 27.0°F-2.8°C 28% 7.8 mph SW12.6 kmh SW 16.0 mph25.7 kmh 29.58 in1001.7 mb 0.00 in0.0 mm 0.00 in0.0 mm 0.00 in0.0 mm
12:35 PM 60.2°F15.7°C 27.8°F-2.3°C 29% 3.1 mph SSW5.0 kmh SSW 16.0 mph25.7 kmh 29.58 in1001.7 mb 0.00 in0.0 mm 0.00 in0.0 mm 0.00 in0.0 mm
12:40 PM 61.0°F16.1°C 26.8°F-2.9°C 27% 7.6 mph SSW12.2 kmh SSW 16.0 mph25.7 kmh 29.58 in1001.7 mb 0.00 in0.0 mm 0.00 in0.0 mm 0.00 in0.0 mm
12:45 PM 61.2°F16.2°C 27.8°F-2.3°C 28% 4.1 mph S6.6 kmh S 16.0 mph25.7 kmh 29.58 in1001.7 mb 0.00 in0.0 mm 0.00 in0.0 mm 0.00 in0.0 mm
12:50 PM 61.4°F16.3°C 27.1°F-2.7°C 27% 5.8 mph SW9.3 kmh SW 14.0 mph22.5 kmh 29.58 in1001.7 mb 0.00 in0.0 mm 0.00 in0.0 mm 0.00 in0.0 mm
12:55 PM 62.0°F16.7°C 28.5°F-1.9°C 28% 4.4 mph S7.1 kmh S 14.0 mph22.5 kmh 29.58 in1001.7 mb 0.00 in0.0 mm 0.00 in0.0 mm 0.00 in0.0 mm
01:00 PM 62.2°F16.8°C 26.9°F-2.8°C 26% 6.1 mph S9.8 kmh S 14.0 mph22.5 kmh 29.58 in1001.7 mb 0.00 in0.0 mm 0.00 in0.0 mm 0.00 in0.0 mm
01:05 PM 62.1°F16.7°C 27.7°F-2.4°C 27% 3.8 mph SSE6.1 kmh SSE 14.0 mph22.5 kmh 29.57 in1001.4 mb 0.00 in0.0 mm 0.00 in0.0 mm 0.00 in0.0 mm
01:10 PM 62.7°F17.1°C 27.3°F-2.6°C 26% 3.4 mph NNW5.5 kmh NNW 10.0 mph16.1 kmh 29.57 in1001.4 mb 0.00 in0.0 mm 0.00 in0.0 mm 0.00 in0.0 mm
01:15 PM 62.7°F17.1°C 30.0°F-1.1°C 29% 5.9 mph NNW9.5 kmh NNW 12.0 mph19.3 kmh 29.56 in1001.0 mb 0.00 in0.0 mm 0.00 in0.0 mm 0.00 in0.0 mm
01:20 PM 63.0°F17.2°C 28.5°F-1.9°C 27% 5.3 mph SW8.5 kmh SW 12.0 mph19.3 kmh 29.57 in1001.4 mb 0.00 in0.0 mm 0.00 in0.0 mm 0.00 in0.0 mm
01:25 PM 62.9°F17.2°C 28.4°F-2.0°C 27% 1.9 mph S3.1 kmh S 10.0 mph16.1 kmh 29.57 in1001.4 mb 0.00 in0.0 mm 0.00 in0.0 mm 0.00 in0.0 mm
01:30 PM 64.0°F17.8°C 32.8°F0.4°C 31% 2.7 mph SE4.3 kmh SE 8.0 mph12.9 kmh 29.56 in1001.0 mb 0.00 in0.0 mm 0.00 in0.0 mm 0.00 in0.0 mm
01:35 PM 64.0°F17.8°C 31.1°F-0.5°C 29% 4.1 mph WSW6.6 kmh WSW 9.0 mph14.5 kmh 29.56 in1001.0 mb 0.00 in0.0 mm 0.00 in0.0 mm 0.00 in0.0 mm
01:40 PM 63.7°F17.6°C 31.7°F-0.2°C 30% 2.8 mph SSE4.5 kmh SSE 9.0 mph14.5 kmh 29.56 in1001.0 mb 0.00 in0.0 mm 0.00 in0.0 mm 0.00 in0.0 mm
01:45 PM 64.0°F17.8°C 32.8°F0.4°C 31% 2.7 mph SSE4.3 kmh SSE 10.0 mph16.1 kmh 29.57 in1001.4 mb 0.00 in0.0 mm 0.00 in0.0 mm 0.00 in0.0 mm
01:50 PM 63.9°F17.7°C 33.5°F0.8°C 32% 3.5 mph S5.6 kmh S 14.0 mph22.5 kmh 29.57 in1001.4 mb 0.00 in0.0 mm 0.00 in0.0 mm 0.00 in0.0 mm
01:55 PM 63.2°F17.3°C 33.6°F0.9°C 33% 5.1 mph SE8.2 kmh SE 15.0 mph24.1 kmh 29.56 in1001.0 mb 0.00 in0.0 mm 0.00 in0.0 mm 0.00 in0.0 mm
02:00 PM 63.5°F17.5°C 33.9°F1.1°C 33% 2.8 mph SE4.5 kmh SE 14.0 mph22.5 kmh 29.56 in1001.0 mb 0.00 in0.0 mm 0.00 in0.0 mm 0.00 in0.0 mm
02:05 PM 63.7°F17.6°C 32.5°F0.3°C 31% 3.3 mph ENE5.3 kmh ENE 10.0 mph16.1 kmh 29.56 in1001.0 mb 0.00 in0.0 mm 0.00 in0.0 mm 0.00 in0.0 mm
02:10 PM 64.2°F17.9°C 33.7°F0.9°C 32% 2.8 mph ESE4.5 kmh ESE 13.0 mph20.9 kmh 29.56 in1001.0 mb 0.00 in0.0 mm 0.00 in0.0 mm 0.00 in0.0 mm
02:15 PM 65.0°F18.3°C 33.6°F0.9°C 31% 3.1 mph E5.0 kmh E 13.0 mph20.9 kmh 29.56 in1001.0 mb 0.00 in0.0 mm 0.00 in0.0 mm 0.00 in0.0 mm
02:20 PM 65.8°F18.8°C 32.7°F0.4°C 29% 3.9 mph E6.3 kmh E 9.0 mph14.5 kmh 29.56 in1001.0 mb 0.00 in0.0 mm 0.00 in0.0 mm 0.00 in0.0 mm
02:25 PM 65.7°F18.7°C 32.6°F0.3°C 29% 3.6 mph SE5.8 kmh SE 9.0 mph14.5 kmh 29.55 in1000.7 mb 0.00 in0.0 mm 0.00 in0.0 mm 0.00 in0.0 mm
02:30 PM 65.0°F18.3°C 33.6°F0.9°C 31% 5.0 mph ESE8.0 kmh ESE 14.0 mph22.5 kmh 29.55 in1000.7 mb 0.00 in0.0 mm 0.00 in0.0 mm 0.00 in0.0 mm
02:35 PM 65.2°F18.4°C 32.1°F0.1°C 29% 2.6 mph E4.2 kmh E 14.0 mph22.5 kmh 29.56 in1001.0 mb 0.00 in0.0 mm 0.00 in0.0 mm 0.00 in0.0 mm
02:40 PM 65.5°F18.6°C 33.2°F0.7°C 30% 6.3 mph ENE10.1 kmh ENE 13.0 mph20.9 kmh 29.54 in1000.3 mb 0.00 in0.0 mm 0.00 in0.0 mm 0.00 in0.0 mm
02:45 PM 66.1°F18.9°C 33.8°F1.0°C 30% 2.6 mph E4.2 kmh E 13.0 mph20.9 kmh 29.55 in1000.7 mb 0.00 in0.0 mm 0.00 in0.0 mm 0.00 in0.0 mm
02:50 PM 64.6°F18.1°C 32.5°F0.3°C 30% 5.5 mph SE8.9 kmh SE 12.0 mph19.3 kmh 29.55 in1000.7 mb 0.00 in0.0 mm 0.00 in0.0 mm 0.00 in0.0 mm
02:55 PM 64.8°F18.2°C 32.6°F0.3°C 30% 3.7 mph E6.0 kmh E 12.0 mph19.3 kmh 29.55 in1000.7 mb 0.00 in0.0 mm 0.00 in0.0 mm 0.00 in0.0 mm
03:00 PM 65.1°F18.4°C 33.7°F0.9°C 31% 3.5 mph ESE5.6 kmh ESE 11.0 mph17.7 kmh 29.55 in1000.7 mb 0.00 in0.0 mm 0.00 in0.0 mm 0.00 in0.0 mm
03:05 PM 64.5°F18.1°C 33.2°F0.7°C 31% 4.4 mph S7.1 kmh S 12.0 mph19.3 kmh 29.55 in1000.7 mb 0.00 in0.0 mm 0.00 in0.0 mm 0.00 in0.0 mm
03:10 PM 65.3°F18.5°C 33.1°F0.6°C 30% 4.4 mph NE7.1 kmh NE 12.0 mph19.3 kmh 29.55 in1000.7 mb 0.00 in0.0 mm 0.00 in0.0 mm 0.00 in0.0 mm
03:15 PM 66.2°F19.0°C 33.8°F1.0°C 30% 4.7 mph ENE7.6 kmh ENE 11.0 mph17.7 kmh 29.55 in1000.7 mb 0.00 in0.0 mm 0.00 in0.0 mm 0.00 in0.0 mm
03:20 PM 67.1°F19.5°C 34.6°F1.4°C 30% 3.8 mph ENE6.1 kmh ENE 10.0 mph16.1 kmh 29.55 in1000.7 mb 0.00 in0.0 mm 0.00 in0.0 mm 0.00 in0.0 mm
03:25 PM 67.5°F19.7°C 33.2°F0.7°C 28% 3.8 mph E6.1 kmh E 10.0 mph16.1 kmh 29.55 in1000.7 mb 0.00 in0.0 mm 0.00 in0.0 mm 0.00 in0.0 mm
03:30 PM 67.7°F19.8°C 33.4°F0.8°C 28% 4.2 mph E6.8 kmh E 12.0 mph19.3 kmh 29.54 in1000.3 mb 0.00 in0.0 mm 0.00 in0.0 mm 0.00 in0.0 mm
03:35 PM 68.2°F20.1°C 34.7°F1.5°C 29% 4.2 mph ENE6.8 kmh ENE 12.0 mph19.3 kmh 29.54 in1000.3 mb 0.00 in0.0 mm 0.00 in0.0 mm 0.00 in0.0 mm
03:40 PM 68.5°F20.3°C 34.1°F1.2°C 28% 4.3 mph ENE6.9 kmh ENE 12.0 mph19.3 kmh 29.54 in1000.3 mb 0.00 in0.0 mm 0.00 in0.0 mm 0.00 in0.0 mm
03:45 PM 68.1°F20.1°C 33.8°F1.0°C 28% 3.9 mph E6.3 kmh E 12.0 mph19.3 kmh 29.54 in1000.3 mb 0.00 in0.0 mm 0.00 in0.0 mm 0.00 in0.0 mm
03:50 PM 67.9°F19.9°C 34.5°F1.4°C 29% 4.1 mph E6.6 kmh E 12.0 mph19.3 kmh 29.54 in1000.3 mb 0.00 in0.0 mm 0.00 in0.0 mm 0.00 in0.0 mm
03:55 PM 68.1°F20.1°C 33.8°F1.0°C 28% 3.8 mph ENE6.1 kmh ENE 11.0 mph17.7 kmh 29.54 in1000.3 mb 0.00 in0.0 mm 0.00 in0.0 mm 0.00 in0.0 mm
04:00 PM 67.5°F19.7°C 33.2°F0.7°C 28% 4.8 mph E7.7 kmh E 11.0 mph17.7 kmh 29.54 in1000.3 mb 0.00 in0.0 mm 0.00 in0.0 mm 0.00 in0.0 mm
04:05 PM 67.4°F19.7°C 34.0°F1.1°C 29% 3.9 mph E6.3 kmh E 10.0 mph16.1 kmh 29.54 in1000.3 mb 0.00 in0.0 mm 0.00 in0.0 mm 0.00 in0.0 mm
04:10 PM 66.7°F19.3°C 33.4°F0.8°C 29% 4.1 mph ESE6.6 kmh ESE 9.0 mph14.5 kmh 29.53 in1000.0 mb 0.00 in0.0 mm 0.00 in0.0 mm 0.00 in0.0 mm
04:15 PM 66.0°F18.9°C 33.7°F0.9°C 30% 3.6 mph E5.8 kmh E 8.0 mph12.9 kmh 29.54 in1000.3 mb 0.00 in0.0 mm 0.00 in0.0 mm 0.00 in0.0 mm
04:20 PM 66.1°F18.9°C 33.8°F1.0°C 30% 3.6 mph NE5.8 kmh NE 8.0 mph12.9 kmh 29.54 in1000.3 mb 0.00 in0.0 mm 0.00 in0.0 mm 0.00 in0.0 mm
04:25 PM 66.0°F18.9°C 32.8°F0.4°C 29% 3.9 mph E6.3 kmh E 10.0 mph16.1 kmh 29.53 in1000.0 mb 0.00 in0.0 mm 0.00 in0.0 mm 0.00 in0.0 mm
04:30 PM 65.5°F18.6°C 33.2°F0.7°C 30% 3.2 mph E5.1 kmh E 10.0 mph16.1 kmh 29.54 in1000.3 mb 0.00 in0.0 mm 0.00 in0.0 mm 0.00 in0.0 mm
04:35 PM 65.4°F18.6°C 33.2°F0.7°C 30% 3.4 mph ENE5.5 kmh ENE 9.0 mph14.5 kmh 29.54 in1000.3 mb 0.00 in0.0 mm 0.00 in0.0 mm 0.00 in0.0 mm
04:40 PM 64.9°F18.3°C 31.9°F-0.1°C 29% 2.4 mph E3.9 kmh E 9.0 mph14.5 kmh 29.54 in1000.3 mb 0.00 in0.0 mm 0.00 in0.0 mm 0.00 in0.0 mm
04:45 PM 64.5°F18.1°C 33.2°F0.7°C 31% 3.9 mph E6.3 kmh E 8.0 mph12.9 kmh 29.54 in1000.3 mb 0.00 in0.0 mm 0.00 in0.0 mm 0.00 in0.0 mm
04:50 PM 64.1°F17.8°C 32.8°F0.4°C 31% 2.8 mph E4.5 kmh E 8.0 mph12.9 kmh 29.54 in1000.3 mb 0.00 in0.0 mm 0.00 in0.0 mm 0.00 in0.0 mm
04:55 PM 64.1°F17.8°C 33.6°F0.9°C 32% 2.7 mph E4.3 kmh E 10.0 mph16.1 kmh 29.54 in1000.3 mb 0.00 in0.0 mm 0.00 in0.0 mm 0.00 in0.0 mm
05:00 PM 64.8°F18.2°C 33.5°F0.8°C 31% 2.9 mph E4.7 kmh E 10.0 mph16.1 kmh 29.54 in1000.3 mb 0.00 in0.0 mm 0.00 in0.0 mm 0.00 in0.0 mm
05:05 PM 65.1°F18.4°C 32.1°F0.1°C 29% 2.8 mph ENE4.5 kmh ENE 8.0 mph12.9 kmh 29.54 in1000.3 mb 0.00 in0.0 mm 0.00 in0.0 mm 0.00 in0.0 mm
05:10 PM 65.0°F18.3°C 33.6°F0.9°C 31% 2.9 mph ENE4.7 kmh ENE 7.0 mph11.3 kmh 29.54 in1000.3 mb 0.00 in0.0 mm 0.00 in0.0 mm 0.00 in0.0 mm
05:15 PM 65.4°F18.6°C 34.0°F1.1°C 31% 2.4 mph ENE3.9 kmh ENE 7.0 mph11.3 kmh 29.54 in1000.3 mb 0.00 in0.0 mm 0.00 in0.0 mm 0.00 in0.0 mm
05:20 PM 65.7°F18.7°C 33.4°F0.8°C 30% 1.1 mph ENE1.8 kmh ENE 6.0 mph9.7 kmh 29.55 in1000.7 mb 0.00 in0.0 mm 0.00 in0.0 mm 0.00 in0.0 mm
05:25 PM 65.7°F18.7°C 33.4°F0.8°C 30% 2.5 mph E4.0 kmh E 6.0 mph9.7 kmh 29.54 in1000.3 mb 0.00 in0.0 mm 0.00 in0.0 mm 0.00 in0.0 mm
05:30 PM 65.7°F18.7°C 32.6°F0.3°C 29% 2.6 mph E4.2 kmh E 8.0 mph12.9 kmh 29.54 in1000.3 mb 0.00 in0.0 mm 0.00 in0.0 mm 0.00 in0.0 mm
05:35 PM 64.8°F18.2°C 31.8°F-0.1°C 29% 2.1 mph ESE3.4 kmh ESE 8.0 mph12.9 kmh 29.55 in1000.7 mb 0.00 in0.0 mm 0.00 in0.0 mm 0.00 in0.0 mm
05:40 PM 64.2°F17.9°C 32.9°F0.5°C 31% 3.2 mph E5.1 kmh E 7.0 mph11.3 kmh 29.55 in1000.7 mb 0.00 in0.0 mm 0.00 in0.0 mm 0.00 in0.0 mm
05:45 PM 64.4°F18.0°C 33.1°F0.6°C 31% 2.0 mph E3.2 kmh E 7.0 mph11.3 kmh 29.55 in1000.7 mb 0.00 in0.0 mm 0.00 in0.0 mm 0.00 in0.0 mm
05:50 PM 64.5°F18.1°C 32.4°F0.2°C 30% 2.6 mph E4.2 kmh E 7.0 mph11.3 kmh 29.55 in1000.7 mb 0.00 in0.0 mm 0.00 in0.0 mm 0.00 in0.0 mm
05:55 PM 64.5°F18.1°C 33.2°F0.7°C 31% 1.6 mph E2.6 kmh E 6.0 mph9.7 kmh 29.55 in1000.7 mb 0.00 in0.0 mm 0.00 in0.0 mm 0.00 in0.0 mm
06:00 PM 64.3°F17.9°C 32.2°F0.1°C 30% 2.1 mph E3.4 kmh E 6.0 mph9.7 kmh 29.55 in1000.7 mb 0.00 in0.0 mm 0.00 in0.0 mm 0.00 in0.0 mm
06:05 PM 63.8°F17.7°C 32.6°F0.3°C 31% 1.1 mph E1.8 kmh E 6.0 mph9.7 kmh 29.55 in1000.7 mb 0.00 in0.0 mm 0.00 in0.0 mm 0.00 in0.0 mm
06:10 PM 63.6°F17.6°C 33.2°F0.7°C 32% 2.0 mph E3.2 kmh E 5.0 mph8.0 kmh 29.54 in1000.3 mb 0.00 in0.0 mm 0.00 in0.0 mm 0.00 in0.0 mm
06:15 PM 63.4°F17.4°C 33.0°F0.6°C 32% 1.6 mph E2.6 kmh E 5.0 mph8.0 kmh 29.55 in1000.7 mb 0.00 in0.0 mm 0.00 in0.0 mm 0.00 in0.0 mm
06:20 PM 63.2°F17.3°C 32.9°F0.5°C 32% 1.5 mph E2.4 kmh E 5.0 mph8.0 kmh 29.55 in1000.7 mb 0.00 in0.0 mm 0.00 in0.0 mm 0.00 in0.0 mm
06:25 PM 62.9°F17.2°C 32.6°F0.3°C 32% 1.9 mph E3.1 kmh E 5.0 mph8.0 kmh 29.55 in1000.7 mb 0.00 in0.0 mm 0.00 in0.0 mm 0.00 in0.0 mm
06:30 PM 62.6°F17.0°C 33.1°F0.6°C 33% 1.1 mph E1.8 kmh E 4.0 mph6.4 kmh 29.55 in1000.7 mb 0.00 in0.0 mm 0.00 in0.0 mm 0.00 in0.0 mm
06:35 PM 62.2°F16.8°C 32.0°F0.0°C 32% 1.1 mph E1.8 kmh E 4.0 mph6.4 kmh 29.55 in1000.7 mb 0.00 in0.0 mm 0.00 in0.0 mm 0.00 in0.0 mm
06:40 PM 61.9°F16.6°C 32.5°F0.3°C 33% 0.7 mph E1.1 kmh E 4.0 mph6.4 kmh 29.55 in1000.7 mb 0.00 in0.0 mm 0.00 in0.0 mm 0.00 in0.0 mm
06:45 PM 61.3°F16.3°C 32.7°F0.4°C 34% 0.6 mph E1.0 kmh E 4.0 mph6.4 kmh 29.55 in1000.7 mb 0.00 in0.0 mm 0.00 in0.0 mm 0.00 in0.0 mm
06:50 PM 60.5°F15.8°C 32.0°F0.0°C 34% 1.1 mph E1.8 kmh E 3.0 mph4.8 kmh 29.55 in1000.7 mb 0.00 in0.0 mm 0.00 in0.0 mm 0.00 in0.0 mm
06:55 PM 59.4°F15.2°C 31.7°F-0.2°C 35% 1.0 mph E1.6 kmh E 4.0 mph6.4 kmh 29.56 in1001.0 mb 0.00 in0.0 mm 0.00 in0.0 mm 0.00 in0.0 mm
07:00 PM 58.3°F14.6°C 31.5°F-0.3°C 36% 2.1 mph ESE3.4 kmh ESE 4.0 mph6.4 kmh 29.56 in1001.0 mb 0.00 in0.0 mm 0.00 in0.0 mm 0.00 in0.0 mm
07:05 PM 57.4°F14.1°C 31.3°F-0.4°C 37% 1.0 mph ESE1.6 kmh ESE 4.0 mph6.4 kmh 29.56 in1001.0 mb 0.00 in0.0 mm 0.00 in0.0 mm 0.00 in0.0 mm
07:10 PM 56.4°F13.6°C 31.1°F-0.5°C 38% 0.2 mph SE0.3 kmh SE 3.0 mph4.8 kmh 29.56 in1001.0 mb 0.00 in0.0 mm 0.00 in0.0 mm 0.00 in0.0 mm
07:15 PM 55.6°F13.1°C 31.0°F-0.6°C 39% Calm Calm 2.0 mph3.2 kmh 29.56 in1001.0 mb 0.00 in0.0 mm 0.00 in0.0 mm 0.00 in0.0 mm
07:20 PM 54.9°F12.7°C 31.0°F-0.6°C 40% Calm Calm 1.0 mph1.6 kmh 29.57 in1001.4 mb 0.00 in0.0 mm 0.00 in0.0 mm 0.00 in0.0 mm
07:25 PM 54.2°F12.3°C 31.0°F-0.6°C 41% 0.7 mph S1.1 kmh S 2.0 mph3.2 kmh 29.57 in1001.4 mb 0.00 in0.0 mm 0.00 in0.0 mm 0.00 in0.0 mm
07:30 PM 53.7°F12.1°C 31.2°F-0.4°C 42% 0.2 mph SW0.3 kmh SW 2.0 mph3.2 kmh 29.57 in1001.4 mb 0.00 in0.0 mm 0.00 in0.0 mm 0.00 in0.0 mm
07:35 PM 53.2°F11.8°C 30.7°F-0.7°C 42% 0.9 mph SW1.4 kmh SW 2.0 mph3.2 kmh 29.57 in1001.4 mb 0.00 in0.0 mm 0.00 in0.0 mm 0.00 in0.0 mm
07:40 PM 52.7°F11.5°C 30.8°F-0.7°C 43% 2.3 mph SSW3.7 kmh SSW 4.0 mph6.4 kmh 29.57 in1001.4 mb 0.00 in0.0 mm 0.00 in0.0 mm 0.00 in0.0 mm
07:45 PM 52.3°F11.3°C 31.0°F-0.6°C 44% 1.2 mph WSW1.9 kmh WSW 4.0 mph6.4 kmh 29.57 in1001.4 mb 0.00 in0.0 mm 0.00 in0.0 mm 0.00 in0.0 mm
07:50 PM 52.0°F11.1°C 31.3°F-0.4°C 45% 1.5 mph SW2.4 kmh SW 3.0 mph4.8 kmh 29.58 in1001.7 mb 0.00 in0.0 mm 0.00 in0.0 mm 0.00 in0.0 mm
07:55 PM 51.7°F10.9°C 31.1°F-0.5°C 45% 3.1 mph SSW5.0 kmh SSW 4.0 mph6.4 kmh 29.58 in1001.7 mb 0.00 in0.0 mm 0.00 in0.0 mm 0.00 in0.0 mm
08:00 PM 51.5°F10.8°C 30.9°F-0.6°C 45% 4.6 mph S7.4 kmh S 6.0 mph9.7 kmh 29.58 in1001.7 mb 0.00 in0.0 mm 0.00 in0.0 mm 0.00 in0.0 mm
08:05 PM 51.5°F10.8°C 30.9°F-0.6°C 45% 1.6 mph S2.6 kmh S 6.0 mph9.7 kmh 29.59 in1002.0 mb 0.00 in0.0 mm 0.00 in0.0 mm 0.00 in0.0 mm
08:10 PM 51.5°F10.8°C 30.9°F-0.6°C 45% 1.6 mph S2.6 kmh S 4.0 mph6.4 kmh 29.59 in1002.0 mb 0.00 in0.0 mm 0.00 in0.0 mm 0.00 in0.0 mm
08:15 PM 51.5°F10.8°C 30.9°F-0.6°C 45% 2.3 mph SSW3.7 kmh SSW 4.0 mph6.4 kmh 29.59 in1002.0 mb 0.00 in0.0 mm 0.00 in0.0 mm 0.00 in0.0 mm
08:20 PM 51.4°F10.8°C 31.3°F-0.4°C 46% 1.8 mph SW2.9 kmh SW 4.0 mph6.4 kmh 29.59 in1002.0 mb 0.00 in0.0 mm 0.00 in0.0 mm 0.00 in0.0 mm
08:25 PM 51.1°F10.6°C 31.0°F-0.6°C 46% 1.3 mph SW2.1 kmh SW 3.0 mph4.8 kmh 29.59 in1002.0 mb 0.00 in0.0 mm 0.00 in0.0 mm 0.00 in0.0 mm
08:30 PM 50.6°F10.3°C 31.1°F-0.5°C 47% 2.5 mph SSW4.0 kmh SSW 4.0 mph6.4 kmh 29.59 in1002.0 mb 0.00 in0.0 mm 0.00 in0.0 mm 0.00 in0.0 mm
08:35 PM 50.4°F10.2°C 30.9°F-0.6°C 47% 2.4 mph S3.9 kmh S 4.0 mph6.4 kmh 29.59 in1002.0 mb 0.00 in0.0 mm 0.00 in0.0 mm 0.00 in0.0 mm
08:40 PM 50.2°F10.1°C 30.8°F-0.7°C 47% 2.4 mph S3.9 kmh S 4.0 mph6.4 kmh 29.59 in1002.0 mb 0.00 in0.0 mm 0.00 in0.0 mm 0.00 in0.0 mm
08:45 PM 50.0°F10.0°C 30.6°F-0.8°C 47% 3.0 mph S4.8 kmh S 4.0 mph6.4 kmh 29.59 in1002.0 mb 0.00 in0.0 mm 0.00 in0.0 mm 0.00 in0.0 mm
08:50 PM 50.1°F10.1°C 30.7°F-0.7°C 47% 2.2 mph S3.5 kmh S 4.0 mph6.4 kmh 29.60 in1002.4 mb 0.00 in0.0 mm 0.00 in0.0 mm 0.00 in0.0 mm
08:55 PM 50.2°F10.1°C 31.3°F-0.4°C 48% 2.4 mph SE3.9 kmh SE 4.0 mph6.4 kmh 29.59 in1002.0 mb 0.00 in0.0 mm 0.00 in0.0 mm 0.00 in0.0 mm
09:00 PM 50.1°F10.1°C 31.2°F-0.4°C 48% 1.9 mph E3.1 kmh E 4.0 mph6.4 kmh 29.59 in1002.0 mb 0.00 in0.0 mm 0.00 in0.0 mm 0.00 in0.0 mm
09:05 PM 49.7°F9.8°C 30.8°F-0.7°C 48% 2.7 mph E4.3 kmh E 4.0 mph6.4 kmh 29.59 in1002.0 mb 0.00 in0.0 mm 0.00 in0.0 mm 0.00 in0.0 mm
09:10 PM 49.4°F9.7°C 31.0°F-0.6°C 49% 3.4 mph ESE5.5 kmh ESE 6.0 mph9.7 kmh 29.60 in1002.4 mb 0.00 in0.0 mm 0.00 in0.0 mm 0.00 in0.0 mm
09:15 PM 49.2°F9.6°C 30.9°F-0.6°C 49% 4.0 mph ESE6.4 kmh ESE 6.0 mph9.7 kmh 29.60 in1002.4 mb 0.00 in0.0 mm 0.00 in0.0 mm 0.00 in0.0 mm
09:20 PM 49.2°F9.6°C 31.4°F-0.3°C 50% 4.0 mph ESE6.4 kmh ESE 6.0 mph9.7 kmh 29.60 in1002.4 mb 0.00 in0.0 mm 0.00 in0.0 mm 0.00 in0.0 mm
09:25 PM 49.2°F9.6°C 30.9°F-0.6°C 49% 3.5 mph ESE5.6 kmh ESE 6.0 mph9.7 kmh 29.60 in1002.4 mb 0.00 in0.0 mm 0.00 in0.0 mm 0.00 in0.0 mm
09:30 PM 49.3°F9.6°C 31.0°F-0.6°C 49% 3.0 mph SE4.8 kmh SE 6.0 mph9.7 kmh 29.60 in1002.4 mb 0.00 in0.0 mm 0.00 in0.0 mm 0.00 in0.0 mm
09:35 PM 49.5°F9.7°C 31.1°F-0.5°C 49% 2.9 mph SE4.7 kmh SE 5.0 mph8.0 kmh 29.60 in1002.4 mb 0.00 in0.0 mm 0.00 in0.0 mm 0.00 in0.0 mm
09:40 PM 49.6°F9.8°C 31.2°F-0.4°C 49% 1.0 mph SE1.6 kmh SE 5.0 mph8.0 kmh 29.60 in1002.4 mb 0.00 in0.0 mm 0.00 in0.0 mm 0.00 in0.0 mm
09:45 PM 49.7°F9.8°C 31.3°F-0.4°C 49% Calm Calm 4.0 mph6.4 kmh 29.60 in1002.4 mb 0.00 in0.0 mm 0.00 in0.0 mm 0.00 in0.0 mm
09:50 PM 50.0°F10.0°C 31.1°F-0.5°C 48% Calm Calm -- 29.60 in1002.4 mb 0.00 in0.0 mm 0.00 in0.0 mm 0.00 in0.0 mm
09:55 PM 50.2°F10.1°C 31.3°F-0.4°C 48% Calm Calm -- 29.60 in1002.4 mb 0.00 in0.0 mm 0.00 in0.0 mm 0.00 in0.0 mm
10:00 PM 50.3°F10.2°C 31.4°F-0.3°C 48% Calm Calm -- 29.60 in1002.4 mb 0.00 in0.0 mm 0.00 in0.0 mm 0.00 in0.0 mm
10:05 PM 50.2°F10.1°C 31.3°F-0.4°C 48% Calm Calm -- 29.59 in1002.0 mb 0.00 in0.0 mm 0.00 in0.0 mm 0.00 in0.0 mm
10:10 PM 50.2°F10.1°C 31.3°F-0.4°C 48% 0.9 mph SSW1.4 kmh SSW 3.0 mph4.8 kmh 29.60 in1002.4 mb 0.00 in0.0 mm 0.00 in0.0 mm 0.00 in0.0 mm
10:15 PM 50.3°F10.2°C 31.4°F-0.3°C 48% 1.3 mph S2.1 kmh S 3.0 mph4.8 kmh 29.59 in1002.0 mb 0.00 in0.0 mm 0.00 in0.0 mm 0.00 in0.0 mm
10:20 PM 50.4°F10.2°C 31.5°F-0.3°C 48% 0.9 mph S1.4 kmh S 3.0 mph4.8 kmh 29.59 in1002.0 mb 0.00 in0.0 mm 0.00 in0.0 mm 0.00 in0.0 mm
10:25 PM 50.4°F10.2°C 31.5°F-0.3°C 48% 2.4 mph SE3.9 kmh SE 5.0 mph8.0 kmh 29.59 in1002.0 mb 0.00 in0.0 mm 0.00 in0.0 mm 0.00 in0.0 mm
10:30 PM 50.4°F10.2°C 31.5°F-0.3°C 48% 2.8 mph SSW4.5 kmh SSW 5.0 mph8.0 kmh 29.59 in1002.0 mb 0.00 in0.0 mm 0.00 in0.0 mm 0.00 in0.0 mm
10:35 PM 50.6°F10.3°C 31.1°F-0.5°C 47% 2.3 mph S3.7 kmh S 8.0 mph12.9 kmh 29.59 in1002.0 mb 0.00 in0.0 mm 0.00 in0.0 mm 0.00 in0.0 mm
10:40 PM 50.4°F10.2°C 30.9°F-0.6°C 47% 1.7 mph S2.7 kmh S 8.0 mph12.9 kmh 29.59 in1002.0 mb 0.00 in0.0 mm 0.00 in0.0 mm 0.00 in0.0 mm
10:45 PM 50.3°F10.2°C 31.4°F-0.3°C 48% 1.8 mph SSE2.9 kmh SSE 4.0 mph6.4 kmh 29.59 in1002.0 mb 0.00 in0.0 mm 0.00 in0.0 mm 0.00 in0.0 mm
10:50 PM 50.3°F10.2°C 30.8°F-0.7°C 47% 1.1 mph SSW1.8 kmh SSW 4.0 mph6.4 kmh 29.59 in1002.0 mb 0.00 in0.0 mm 0.00 in0.0 mm 0.00 in0.0 mm
10:55 PM 50.3°F10.2°C 30.8°F-0.7°C 47% 1.2 mph SSW1.9 kmh SSW 3.0 mph4.8 kmh 29.59 in1002.0 mb 0.00 in0.0 mm 0.00 in0.0 mm 0.00 in0.0 mm
11:00 PM 50.7°F10.4°C 30.1°F-1.1°C 45% 2.6 mph S4.2 kmh S 6.0 mph9.7 kmh 29.59 in1002.0 mb 0.00 in0.0 mm 0.00 in0.0 mm 0.00 in0.0 mm
11:05 PM 50.9°F10.5°C 30.9°F-0.6°C 46% 1.2 mph SW1.9 kmh SW 6.0 mph9.7 kmh 29.59 in1002.0 mb 0.00 in0.0 mm 0.00 in0.0 mm 0.00 in0.0 mm
11:10 PM 51.6°F10.9°C 29.3°F-1.5°C 42% 2.6 mph SW4.2 kmh SW 6.0 mph9.7 kmh 29.58 in1001.7 mb 0.00 in0.0 mm 0.00 in0.0 mm 0.00 in0.0 mm
11:15 PM 52.0°F11.1°C 29.6°F-1.3°C 42% 2.1 mph SW3.4 kmh SW 6.0 mph9.7 kmh 29.58 in1001.7 mb 0.00 in0.0 mm 0.00 in0.0 mm 0.00 in0.0 mm
11:20 PM 52.0°F11.1°C 29.0°F-1.7°C 41% 2.9 mph SW4.7 kmh SW 5.0 mph8.0 kmh 29.57 in1001.4 mb 0.00 in0.0 mm 0.00 in0.0 mm 0.00 in0.0 mm
11:25 PM 52.1°F11.2°C 28.5°F-1.9°C 40% 3.2 mph SW5.1 kmh SW 6.0 mph9.7 kmh 29.57 in1001.4 mb 0.00 in0.0 mm 0.00 in0.0 mm 0.00 in0.0 mm
11:30 PM 52.2°F11.2°C 26.1°F-3.3°C 36% 3.8 mph WSW6.1 kmh WSW 9.0 mph14.5 kmh 29.57 in1001.4 mb 0.00 in0.0 mm 0.00 in0.0 mm 0.00 in0.0 mm
11:35 PM 51.3°F10.7°C 26.6°F-3.0°C 38% 3.6 mph SW5.8 kmh SW 9.0 mph14.5 kmh 29.57 in1001.4 mb 0.00 in0.0 mm 0.00 in0.0 mm 0.00 in0.0 mm
11:40 PM 51.8°F11.0°C 22.1°F-5.5°C 31% 5.2 mph SW8.4 kmh SW 12.0 mph19.3 kmh 29.57 in1001.4 mb 0.00 in0.0 mm 0.00 in0.0 mm 0.00 in0.0 mm
11:45 PM 52.6°F11.4°C 23.6°F-4.7°C 32% 4.0 mph WSW6.4 kmh WSW 12.0 mph19.3 kmh 29.57 in1001.4 mb 0.00 in0.0 mm 0.00 in0.0 mm 0.00 in0.0 mm
11:50 PM 52.7°F11.5°C 23.7°F-4.6°C 32% 3.5 mph SW5.6 kmh SW 9.0 mph14.5 kmh 29.57 in1001.4 mb 0.00 in0.0 mm 0.00 in0.0 mm 0.00 in0.0 mm
11:55 PM 52.6°F11.4°C 22.8°F-5.1°C 31% 3.4 mph SW5.5 kmh SW 6.0 mph9.7 kmh 29.57 in1001.4 mb 0.00 in0.0 mm 0.00 in0.0 mm 0.00 in0.0 mm